Time;durP1;ratioP1;P1;durP2;ratioP2;P2;SDS_P1;SDS_P2;PMS_P1;PMS_P2;Temp;Humidity;BMP_temperature;BMP_pressure;BME280_temperature;BME280_humidity;BME280_pressure;Samples;Min_cycle;Max_cycle;Signal;HPM_P1;HPM_P2
2022/10/06 00:01:18;;;;;;;17.63;3.75;;;15.10;92.10;;;;;;5013061;28;20025;-73
2022/10/06 00:03:44;;;;;;;12.75;3.42;;;15.00;92.40;;;;;;5008944;28;20025;-73
2022/10/06 00:06:12;;;;;;;11.10;2.38;;;15.00;92.30;;;;;;5022787;28;20018;-73
2022/10/06 00:08:39;;;;;;;12.70;3.40;;;15.00;92.20;;;;;;5028730;28;20030;-73
2022/10/06 00:11:06;;;;;;;14.55;2.78;;;15.00;92.30;;;;;;5028527;28;20100;-73
2022/10/06 00:13:32;;;;;;;16.60;3.30;;;14.90;92.20;;;;;;5014068;28;20048;-73
2022/10/06 00:15:58;;;;;;;11.45;2.65;;;14.90;92.10;;;;;;5018869;28;20140;-73
2022/10/06 00:18:25;;;;;;;12.05;2.97;;;15.00;92.00;;;;;;5013289;28;20075;-73
2022/10/06 00:20:59;;;;;;;14.70;2.55;;;15.00;91.90;;;;;;5009251;28;20123;-72
2022/10/06 00:23:25;;;;;;;19.80;3.15;;;14.90;91.80;;;;;;5012654;28;20447;-73
2022/10/06 00:25:51;;;;;;;11.77;2.35;;;14.90;91.90;;;;;;5030367;28;20388;-73
2022/10/06 00:28:16;;;;;;;10.88;2.20;;;14.90;91.90;;;;;;5031055;28;20365;-73
2022/10/06 00:30:43;;;;;;;17.75;3.33;;;14.80;91.80;;;;;;5029830;28;20025;-73
2022/10/06 00:33:10;;;;;;;12.48;2.63;;;14.80;91.70;;;;;;5012688;28;20018;-73
2022/10/06 00:35:36;;;;;;;12.98;2.97;;;14.80;91.50;;;;;;5012699;28;20026;-73
2022/10/06 00:38:02;;;;;;;17.10;3.17;;;14.80;91.50;;;;;;5030185;28;20032;-72
2022/10/06 00:40:29;;;;;;;10.32;2.25;;;14.70;91.30;;;;;;5030583;28;20291;-73
2022/10/06 00:43:04;;;;;;;13.52;2.78;;;14.80;91.30;;;;;;5029744;28;20025;-73
2022/10/06 00:45:36;;;;;;;9.85;2.42;;;14.70;91.10;;;;;;5029760;28;20045;-72
2022/10/06 00:48:07;;;;;;;11.60;2.20;;;14.60;91.20;;;;;;5022002;28;20026;-73
2022/10/06 00:50:34;;;;;;;11.30;2.42;;;14.60;91.20;;;;;;5030718;28;20033;-73
2022/10/06 00:53:01;;;;;;;13.07;2.97;;;14.70;91.10;;;;;;5029653;28;20033;-73
2022/10/06 00:55:26;;;;;;;10.38;2.75;;;14.60;91.00;;;;;;5028849;28;20104;-73
2022/10/06 00:57:52;;;;;;;14.85;3.47;;;14.60;90.90;;;;;;5029858;28;20187;-73
2022/10/06 01:00:18;;;;;;;14.52;3.38;;;14.60;90.80;;;;;;5029869;28;20506;-73
2022/10/06 01:02:51;;;;;;;15.50;3.03;;;14.60;90.70;;;;;;5012847;28;20419;-73
2022/10/06 01:05:29;;;;;;;15.55;3.58;;;14.60;90.80;;;;;;5030286;28;20033;-74
2022/10/06 01:07:55;;;;;;;11.35;2.95;;;14.60;90.40;;;;;;5021069;28;20014;-73
2022/10/06 01:10:21;;;;;;;12.88;2.65;;;14.60;90.40;;;;;;5030118;28;20044;-73
2022/10/06 01:12:47;;;;;;;11.00;2.22;;;14.60;90.30;;;;;;5024797;28;20021;-74
2022/10/06 01:15:14;;;;;;;14.55;3.08;;;14.60;90.30;;;;;;5021221;28;20124;-73
2022/10/06 01:18:07;;;;;;;13.57;2.38;;;14.60;90.30;;;;;;5012205;28;20087;-73
2022/10/06 01:20:35;;;;;;;10.05;2.28;;;14.60;90.10;;;;;;5013629;28;20064;-73
2022/10/06 01:23:04;;;;;;;13.00;2.42;;;14.60;90.40;;;;;;4998421;28;20531;-74
2022/10/06 01:25:32;;;;;;;13.18;2.10;;;14.50;90.10;;;;;;5029108;28;20144;-73
2022/10/06 01:27:59;;;;;;;12.55;2.38;;;14.40;90.30;;;;;;5029741;28;20512;-73
2022/10/06 01:30:29;;;;;;;18.60;2.42;;;14.40;90.40;;;;;;5020589;28;20032;-72
2022/10/06 01:32:55;;;;;;;11.88;2.33;;;14.50;90.40;;;;;;4994398;28;20021;-73
2022/10/06 01:35:21;;;;;;;13.63;2.70;;;14.50;90.20;;;;;;5028310;28;20030;-73
2022/10/06 01:37:47;;;;;;;16.85;3.42;;;14.50;90.10;;;;;;5029023;28;20044;-73
2022/10/06 01:40:12;;;;;;;12.77;2.13;;;14.40;90.00;;;;;;5030169;28;20544;-73
2022/10/06 01:42:38;;;;;;;7.72;2.50;;;14.40;89.70;;;;;;5029337;28;20484;-73
2022/10/06 01:45:05;;;;;;;13.95;3.83;;;14.40;90.00;;;;;;5029012;28;20030;-73
2022/10/06 01:47:31;;;;;;;12.55;2.55;;;14.50;90.10;;;;;;5012146;28;20036;-73
2022/10/06 01:49:58;;;;;;;10.70;3.00;;;14.40;90.10;;;;;;5018689;28;20037;-72
2022/10/06 01:52:25;;;;;;;11.57;2.67;;;14.50;90.10;;;;;;5009925;28;20018;-72
2022/10/06 01:54:51;;;;;;;18.50;3.10;;;14.40;90.00;;;;;;5015541;28;20034;-72
2022/10/06 01:57:16;;;;;;;21.17;3.65;;;14.40;90.00;;;;;;5026346;28;20049;-73
2022/10/06 01:59:42;;;;;;;12.48;2.53;;;14.40;90.10;;;;;;5030253;28;20485;-72
2022/10/06 02:02:09;;;;;;;13.32;2.13;;;14.40;90.10;;;;;;5027957;28;20502;-73
2022/10/06 02:04:34;;;;;;;13.50;2.30;;;14.30;90.10;;;;;;5029153;28;20103;-74
2022/10/06 02:07:00;;;;;;;10.07;2.40;;;14.40;90.30;;;;;;5017050;28;20036;-73
2022/10/06 02:09:25;;;;;;;22.52;4.25;;;14.40;90.00;;;;;;5020630;28;20116;-73
2022/10/06 02:11:51;;;;;;;14.48;2.72;;;14.40;90.00;;;;;;5029575;28;20108;-73
2022/10/06 02:14:17;;;;;;;18.58;2.83;;;14.40;90.00;;;;;;5011534;28;20049;-73
2022/10/06 02:16:43;;;;;;;20.15;4.07;;;14.30;90.00;;;;;;5029206;28;20563;-71
2022/10/06 02:19:09;;;;;;;16.10;2.78;;;14.30;90.00;;;;;;5029067;28;20057;-72
2022/10/06 02:21:35;;;;;;;12.38;3.03;;;14.20;89.90;;;;;;5011639;28;20069;-73
2022/10/06 02:24:01;;;;;;;12.35;2.65;;;14.20;90.00;;;;;;5028818;28;20072;-72
2022/10/06 02:26:26;;;;;;;14.18;2.30;;;14.20;90.00;;;;;;5007385;28;20022;-73
2022/10/06 02:28:53;;;;;;;15.13;2.58;;;14.20;90.00;;;;;;5009843;28;20445;-72
2022/10/06 02:31:18;;;;;;;16.00;3.00;;;14.20;89.90;;;;;;5025844;28;20032;-73
2022/10/06 02:33:44;;;;;;;17.92;3.40;;;14.20;89.90;;;;;;5015476;28;20020;-73
2022/10/06 02:36:12;;;;;;;15.32;3.13;;;14.20;89.90;;;;;;5024403;28;20018;-72
2022/10/06 02:38:38;;;;;;;14.02;3.38;;;14.10;89.70;;;;;;5029301;28;20021;-72
2022/10/06 02:41:05;;;;;;;14.75;2.90;;;14.10;89.80;;;;;;5028158;28;20057;-72
2022/10/06 02:43:30;;;;;;;9.82;2.10;;;14.10;89.60;;;;;;5014891;28;20042;-73
2022/10/06 02:45:58;;;;;;;16.60;2.72;;;14.10;89.70;;;;;;5026575;28;20349;-73
2022/10/06 02:48:25;;;;;;;12.48;2.78;;;14.10;89.60;;;;;;5012630;28;20022;-73
2022/10/06 02:50:55;;;;;;;13.25;2.80;;;14.00;89.50;;;;;;5015539;28;20018;-72
2022/10/06 02:53:21;;;;;;;18.20;2.88;;;14.00;89.50;;;;;;5032643;28;20040;-73
2022/10/06 02:55:47;;;;;;;12.60;3.40;;;14.00;89.70;;;;;;5025371;28;20013;-72
2022/10/06 02:58:12;;;;;;;21.33;3.65;;;13.90;89.70;;;;;;5032762;28;20026;-72
2022/10/06 03:00:40;;;;;;;16.63;2.70;;;13.90;89.70;;;;;;5014032;28;20017;-72
2022/10/06 03:03:05;;;;;;;15.32;2.60;;;13.90;89.80;;;;;;5028791;28;20029;-73
2022/10/06 03:05:31;;;;;;;9.63;2.75;;;13.90;89.60;;;;;;5014937;28;20033;-73
2022/10/06 03:07:56;;;;;;;11.90;2.60;;;13.90;89.50;;;;;;5032660;28;20029;-73
2022/10/06 03:10:22;;;;;;;12.20;2.50;;;13.90;89.60;;;;;;5014684;28;20017;-73
2022/10/06 03:12:48;;;;;;;16.50;2.90;;;13.80;89.70;;;;;;5032045;28;20026;-73
2022/10/06 03:15:13;;;;;;;16.45;2.53;;;13.80;90.10;;;;;;5014309;28;20059;-73
2022/10/06 03:17:39;;;;;;;15.32;3.75;;;13.80;89.80;;;;;;5031762;28;20018;-73
2022/10/06 03:20:06;;;;;;;13.50;2.20;;;13.70;89.80;;;;;;5010712;28;20108;-72
2022/10/06 03:22:31;;;;;;;7.80;1.67;;;13.70;89.90;;;;;;5012017;28;20029;-73
2022/10/06 03:24:57;;;;;;;11.93;2.45;;;13.70;89.80;;;;;;5011878;28;20624;-73
2022/10/06 03:27:23;;;;;;;17.40;2.72;;;13.70;89.90;;;;;;5012079;28;20369;-73
2022/10/06 03:29:49;;;;;;;13.55;2.00;;;13.60;89.90;;;;;;5011002;28;20037;-73
2022/10/06 03:32:15;;;;;;;13.45;2.65;;;13.70;89.90;;;;;;5011870;28;20014;-73
2022/10/06 03:34:41;;;;;;;16.10;2.50;;;13.60;89.80;;;;;;5010717;28;20040;-73
2022/10/06 03:37:07;;;;;;;7.20;1.70;;;13.60;89.70;;;;;;5010494;28;20053;-73
2022/10/06 03:39:33;;;;;;;17.08;3.45;;;13.60;89.80;;;;;;5012543;28;20033;-72
2022/10/06 03:42:02;;;;;;;13.70;2.15;;;13.60;89.90;;;;;;5011490;28;20026;-73
2022/10/06 03:44:27;;;;;;;11.68;2.40;;;13.50;89.80;;;;;;5012254;28;20026;-73
2022/10/06 03:46:53;;;;;;;14.23;2.92;;;13.50;90.00;;;;;;5012380;28;20026;-73
2022/10/06 03:49:19;;;;;;;16.42;2.58;;;13.50;90.00;;;;;;5009078;28;20106;-73
2022/10/06 03:51:44;;;;;;;13.23;2.35;;;13.40;90.00;;;;;;4994561;28;20036;-73
2022/10/06 03:54:11;;;;;;;11.15;2.00;;;13.40;90.10;;;;;;5011851;28;20064;-73
2022/10/06 03:56:41;;;;;;;11.65;2.40;;;13.30;90.20;;;;;;5012184;28;20025;-73
2022/10/06 03:59:10;;;;;;;15.75;2.92;;;13.30;90.30;;;;;;5002939;28;20370;-72
2022/10/06 04:01:44;;;;;;;22.77;3.33;;;13.30;90.40;;;;;;5009159;28;20076;-73
2022/10/06 04:04:11;;;;;;;15.02;2.38;;;13.20;90.40;;;;;;5008608;28;20044;-74
2022/10/06 04:06:38;;;;;;;15.63;2.80;;;13.20;90.40;;;;;;5009891;28;20025;-73
2022/10/06 04:09:08;;;;;;;14.23;3.15;;;13.20;90.40;;;;;;5010952;28;20014;-73
2022/10/06 04:11:36;;;;;;;15.00;3.08;;;13.20;90.50;;;;;;5011237;28;20113;-74
2022/10/06 04:14:05;;;;;;;17.15;2.67;;;13.20;90.50;;;;;;5009497;28;20018;-72
2022/10/06 04:16:33;;;;;;;12.32;2.65;;;13.20;90.50;;;;;;5009440;28;20021;-73
2022/10/06 04:19:01;;;;;;;16.75;2.85;;;13.10;90.50;;;;;;5011189;28;20033;-73
2022/10/06 04:21:28;;;;;;;22.52;4.03;;;13.20;90.50;;;;;;5026436;28;20084;-72
2022/10/06 04:23:55;;;;;;;16.70;2.80;;;13.10;90.50;;;;;;5028176;28;20029;-73
2022/10/06 04:26:23;;;;;;;16.50;3.10;;;13.10;90.60;;;;;;5014036;28;20022;-73
2022/10/06 04:28:49;;;;;;;11.43;2.60;;;13.10;90.50;;;;;;5032439;28;20021;-73
2022/10/06 04:31:21;;;;;;;17.98;2.55;;;13.10;90.60;;;;;;5031631;28;20101;-72
2022/10/06 04:33:53;;;;;;;15.18;2.78;;;13.00;90.50;;;;;;5026559;28;20026;-73
2022/10/06 04:36:21;;;;;;;16.73;3.47;;;13.00;90.50;;;;;;5030775;28;20041;-73
2022/10/06 04:38:55;;;;;;;12.98;2.63;;;13.00;90.60;;;;;;5031036;28;20018;-73
2022/10/06 04:41:23;;;;;;;13.98;2.88;;;13.00;90.60;;;;;;5009697;28;20810;-74
2022/10/06 04:43:55;;;;;;;14.82;2.65;;;12.90;90.60;;;;;;5013061;28;20033;-73
2022/10/06 04:46:23;;;;;;;11.50;3.10;;;12.90;90.70;;;;;;5013668;28;20696;-73
2022/10/06 04:48:51;;;;;;;15.02;3.65;;;12.90;90.70;;;;;;5032580;28;20021;-72
2022/10/06 04:51:18;;;;;;;17.05;2.67;;;12.80;90.70;;;;;;5013573;28;20029;-73
2022/10/06 04:53:44;;;;;;;15.57;2.65;;;12.80;90.90;;;;;;5031400;28;20029;-73
2022/10/06 04:56:15;;;;;;;16.02;2.65;;;12.80;90.90;;;;;;5013637;28;20369;-73
2022/10/06 04:58:43;;;;;;;14.10;2.58;;;12.80;90.90;;;;;;5029195;28;20040;-73
2022/10/06 05:01:20;;;;;;;14.85;3.28;;;12.80;90.90;;;;;;5013116;28;20567;-74
2022/10/06 05:03:47;;;;;;;20.95;4.07;;;12.70;90.90;;;;;;5031070;28;20539;-73
2022/10/06 05:06:17;;;;;;;15.32;3.40;;;12.70;91.00;;;;;;5012515;28;20757;-73
2022/10/06 05:08:56;;;;;;;17.27;3.55;;;12.70;91.00;;;;;;5013217;28;20025;-72
2022/10/06 05:11:23;;;;;;;16.63;3.58;;;12.70;91.00;;;;;;5011866;28;20024;-72
2022/10/06 05:13:50;;;;;;;18.85;3.28;;;12.70;91.00;;;;;;5011920;28;20037;-72
2022/10/06 05:16:16;;;;;;;15.93;2.80;;;12.70;90.90;;;;;;5012664;28;20041;-73
2022/10/06 05:18:42;;;;;;;13.57;3.38;;;12.70;90.90;;;;;;5025478;28;20117;-72
2022/10/06 05:21:13;;;;;;;11.43;2.55;;;12.70;90.80;;;;;;5013287;28;20072;-73
2022/10/06 05:23:42;;;;;;;16.13;2.45;;;12.80;90.70;;;;;;5030575;28;20033;-74
2022/10/06 05:26:11;;;;;;;19.40;3.50;;;12.80;90.60;;;;;;5029598;28;20024;-72
2022/10/06 05:28:37;;;;;;;9.98;2.42;;;12.70;90.60;;;;;;5029977;28;20022;-72
2022/10/06 05:31:20;;;;;;;20.25;2.58;;;12.70;90.70;;;;;;5029904;28;20377;-72
2022/10/06 05:33:45;;;;;;;14.50;2.40;;;12.70;90.70;;;;;;5020429;28;20044;-71
2022/10/06 05:36:14;;;;;;;14.30;3.28;;;12.80;90.70;;;;;;5029375;28;20030;-71
2022/10/06 05:38:40;;;;;;;14.50;2.75;;;12.70;90.50;;;;;;5029852;28;20097;-72
2022/10/06 05:41:11;;;;;;;13.45;2.92;;;12.70;90.50;;;;;;5021306;28;20112;-71
2022/10/06 05:43:38;;;;;;;16.88;3.53;;;12.70;90.50;;;;;;5029764;28;20087;-71
2022/10/06 05:46:06;;;;;;;13.20;4.22;;;12.70;90.40;;;;;;5011550;28;20049;-72
2022/10/06 05:48:32;;;;;;;21.02;4.53;;;12.70;90.40;;;;;;5011770;28;20395;-72
2022/10/06 05:51:05;;;;;;;25.73;3.90;;;12.70;90.60;;;;;;5029149;28;20056;-72
2022/10/06 05:53:32;;;;;;;18.73;4.10;;;12.60;90.70;;;;;;5017813;28;20080;-72
2022/10/06 05:56:22;;;;;;;16.95;3.75;;;12.60;90.80;;;;;;5029907;28;20029;-72
2022/10/06 05:58:50;;;;;;;18.02;3.85;;;12.60;90.80;;;;;;5003926;28;20033;-72
2022/10/06 06:01:19;;;;;;;14.77;3.17;;;12.60;90.60;;;;;;5029517;28;20040;-72
2022/10/06 06:03:48;;;;;;;17.15;4.53;;;12.60;90.80;;;;;;5010071;28;20065;-71
2022/10/06 06:06:19;;;;;;;22.17;4.15;;;12.60;91.00;;;;;;5012137;28;20076;-72
2022/10/06 06:08:47;;;;;;;12.32;3.03;;;12.60;91.00;;;;;;5011604;28;20025;-72
2022/10/06 06:11:12;;;;;;;12.40;3.03;;;12.60;91.20;;;;;;5029384;28;20026;-71
2022/10/06 06:13:38;;;;;;;18.38;3.88;;;12.60;91.20;;;;;;5011890;28;20114;-72
2022/10/06 06:16:05;;;;;;;13.73;4.78;;;12.60;91.00;;;;;;5012160;28;20021;-71
2022/10/06 06:18:32;;;;;;;17.02;3.75;;;12.60;91.20;;;;;;5029230;28;20079;-72
2022/10/06 06:21:00;;;;;;;11.60;2.97;;;12.70;91.40;;;;;;5026774;28;20048;-72
2022/10/06 06:23:35;;;;;;;16.92;3.83;;;12.80;91.30;;;;;;5011102;28;20444;-71
2022/10/06 06:26:06;;;;;;;17.23;3.28;;;12.80;91.20;;;;;;5029998;28;20383;-72
2022/10/06 06:28:32;;;;;;;12.15;2.63;;;12.90;91.20;;;;;;5033565;28;20105;-71
2022/10/06 06:31:10;;;;;;;12.65;3.05;;;13.00;90.80;;;;;;5015582;28;20022;-71
2022/10/06 06:33:38;;;;;;;13.73;3.10;;;13.10;90.70;;;;;;5032684;28;20433;-69
2022/10/06 06:36:14;;;;;;;12.63;2.70;;;13.10;90.60;;;;;;5029889;28;20025;-68
2022/10/06 06:38:41;;;;;;;9.93;2.40;;;13.30;90.80;;;;;;5031695;28;20025;-67
2022/10/06 06:41:13;;;;;;;16.38;2.95;;;13.40;90.50;;;;;;5007688;28;20377;-69
2022/10/06 06:43:38;;;;;;;14.43;2.50;;;13.50;90.10;;;;;;5029165;28;20033;-69
2022/10/06 06:46:04;;;;;;;11.23;3.22;;;13.60;90.10;;;;;;5031329;28;20032;-70
2022/10/06 06:48:30;;;;;;;14.65;3.95;;;13.70;89.30;;;;;;5028250;28;20032;-70
2022/10/06 06:50:57;;;;;;;11.25;3.50;;;13.70;89.20;;;;;;5016774;28;20469;-69
2022/10/06 06:53:23;;;;;;;14.40;2.70;;;13.80;89.10;;;;;;5032740;28;20075;-70
2022/10/06 06:55:50;;;;;;;15.13;3.15;;;13.80;88.70;;;;;;5032099;28;20052;-68
2022/10/06 06:58:17;;;;;;;16.17;3.20;;;13.90;88.40;;;;;;5031790;28;20095;-69
2022/10/06 07:00:42;;;;;;;13.55;3.25;;;13.90;87.90;;;;;;5031256;28;20060;-69
2022/10/06 07:03:13;;;;;;;19.20;3.15;;;13.90;87.60;;;;;;5013039;28;20041;-69
2022/10/06 07:05:39;;;;;;;12.70;2.67;;;14.00;87.70;;;;;;5029375;28;20033;-68
2022/10/06 07:08:08;;;;;;;15.60;2.58;;;14.00;86.90;;;;;;5024940;28;20022;-69
2022/10/06 07:10:35;;;;;;;14.43;2.95;;;14.00;86.80;;;;;;5010909;28;20121;-69
2022/10/06 07:13:01;;;;;;;15.57;3.40;;;14.00;86.80;;;;;;5011551;28;20024;-70
2022/10/06 07:26:23;;;;;;;16.15;3.70;;;14.50;85.40;;;;;;5029982;28;20117;-70
2022/10/06 07:28:48;;;;;;;11.45;2.40;;;14.60;85.30;;;;;;5012331;28;20479;-69
2022/10/06 07:31:17;;;;;;;15.75;4.32;;;14.70;84.80;;;;;;5013765;28;20039;-74
2022/10/06 07:33:43;;;;;;;11.27;2.75;;;14.90;84.70;;;;;;5023640;28;20053;-74
2022/10/06 07:36:10;;;;;;;20.25;4.90;;;15.10;83.50;;;;;;5016300;28;20436;-73
2022/10/06 07:38:36;;;;;;;14.07;3.55;;;15.20;82.80;;;;;;5033493;28;20029;-74
2022/10/06 07:41:02;;;;;;;19.13;3.78;;;15.30;82.00;;;;;;5030174;28;20028;-75
2022/10/06 07:43:27;;;;;;;13.57;3.80;;;15.30;81.90;;;;;;5013823;28;20442;-74
2022/10/06 07:45:53;;;;;;;17.45;3.72;;;15.40;81.80;;;;;;5030290;28;20040;-74
2022/10/06 07:48:22;;;;;;;13.80;3.05;;;15.60;81.40;;;;;;5009814;28;20036;-73
2022/10/06 07:50:50;;;;;;;21.02;3.65;;;15.70;81.00;;;;;;5028325;28;20021;-74
2022/10/06 07:53:17;;;;;;;19.17;3.67;;;15.80;80.60;;;;;;5029159;28;20056;-73
2022/10/06 07:55:46;;;;;;;11.32;3.10;;;15.90;80.10;;;;;;5011716;28;20021;-71
2022/10/06 07:58:20;;;;;;;18.02;4.15;;;15.90;79.20;;;;;;5011296;28;20021;-74
2022/10/06 08:00:51;;;;;;;16.95;4.55;;;15.90;78.80;;;;;;5025202;28;20594;-75
2022/10/06 08:03:18;;;;;;;15.23;3.05;;;16.00;79.60;;;;;;5027556;28;20021;-76
2022/10/06 08:05:46;;;;;;;13.00;3.55;;;16.10;79.50;;;;;;5029110;28;20017;-75
2022/10/06 08:08:13;;;;;;;19.27;4.15;;;16.20;79.00;;;;;;5030386;28;20108;-73
2022/10/06 08:10:40;;;;;;;13.65;4.13;;;16.40;78.60;;;;;;5013980;28;20196;-74
2022/10/06 08:13:06;;;;;;;16.85;3.47;;;16.50;77.50;;;;;;5010518;28;20446;-73
2022/10/06 08:15:32;;;;;;;15.43;3.92;;;16.60;77.30;;;;;;4996508;28;20076;-74
2022/10/06 08:17:59;;;;;;;18.05;3.90;;;16.60;77.40;;;;;;5011818;28;20547;-74
2022/10/06 08:20:26;;;;;;;19.05;3.67;;;16.70;77.20;;;;;;5030056;28;20056;-75
2022/10/06 08:22:52;;;;;;;16.15;3.38;;;16.80;76.40;;;;;;5029562;28;20086;-73
2022/10/06 08:25:18;;;;;;;14.82;3.25;;;16.80;75.90;;;;;;5029281;28;20400;-75
2022/10/06 08:27:44;;;;;;;15.25;3.38;;;16.90;75.70;;;;;;5029524;28;20033;-74
2022/10/06 08:30:11;;;;;;;18.42;3.35;;;17.00;75.30;;;;;;5029557;28;20021;-76
2022/10/06 08:32:37;;;;;;;10.15;2.47;;;17.00;74.10;;;;;;5029965;28;20021;-76
2022/10/06 08:35:04;;;;;;;21.40;3.58;;;17.10;75.20;;;;;;5013185;28;20032;-76
2022/10/06 08:37:29;;;;;;;16.52;3.58;;;17.20;73.40;;;;;;5013261;28;20028;-75
2022/10/06 08:39:55;;;;;;;12.85;2.83;;;17.30;73.40;;;;;;5012971;28;20018;-75
2022/10/06 08:42:43;;;;;;;18.13;5.05;;;17.50;74.60;;;;;;5013077;28;20040;-75
2022/10/06 08:45:28;;;;;;;11.50;2.72;;;17.60;72.60;;;;;;5020543;28;20064;-75
2022/10/06 08:48:03;;;;;;;13.63;3.15;;;17.60;71.40;;;;;;5030186;28;20025;-75
2022/10/06 08:50:37;;;;;;;15.07;3.10;;;17.80;72.00;;;;;;5012665;28;20121;-73
2022/10/06 08:53:25;;;;;;;13.15;3.47;;;17.90;71.20;;;;;;5030059;28;20024;-74
2022/10/06 08:56:16;;;;;;;16.35;3.03;;;18.00;71.50;;;;;;5013068;28;20476;-75
2022/10/06 08:58:53;;;;;;;9.77;2.10;;;18.20;69.80;;;;;;5012088;28;20017;-76
2022/10/06 09:01:25;;;;;;;9.85;2.22;;;18.30;69.00;;;;;;5031107;28;20026;-72
2022/10/06 09:04:00;;;;;;;13.50;3.13;;;18.20;68.60;;;;;;5012721;28;20048;-73
2022/10/06 09:06:49;;;;;;;12.73;2.30;;;18.20;68.40;;;;;;5012559;28;20128;-73
2022/10/06 09:09:50;;;;;;;16.70;3.28;;;18.40;69.60;;;;;;5030620;28;20021;-74
2022/10/06 09:12:36;;;;;;;11.05;2.22;;;18.50;67.70;;;;;;5010616;28;20092;-73
2022/10/06 09:15:20;;;;;;;16.65;3.13;;;18.70;67.60;;;;;;5027684;28;20033;-74
2022/10/06 09:18:00;;;;;;;14.73;2.60;;;18.70;65.40;;;;;;5012113;28;20056;-74
2022/10/06 09:20:33;;;;;;;11.90;2.83;;;18.70;66.10;;;;;;5029286;28;20081;-73
2022/10/06 09:23:00;;;;;;;17.65;2.58;;;18.80;65.70;;;;;;5031538;28;20736;-73
2022/10/06 09:25:28;;;;;;;10.23;2.15;;;18.80;66.40;;;;;;5013487;28;20071;-73
2022/10/06 09:28:00;;;;;;;9.18;2.30;;;18.80;65.70;;;;;;5032261;28;20076;-75
2022/10/06 09:30:26;;;;;;;9.73;2.90;;;18.80;67.10;;;;;;5013242;28;20500;-75
2022/10/06 09:33:04;;;;;;;14.57;2.40;;;18.90;64.80;;;;;;5012158;28;20053;-72
2022/10/06 09:35:31;;;;;;;12.57;2.42;;;18.80;65.30;;;;;;5011562;28;20037;-73
2022/10/06 09:38:02;;;;;;;11.15;1.92;;;18.90;65.20;;;;;;5012273;28;20013;-72
2022/10/06 09:40:52;;;;;;;11.68;1.95;;;19.10;68.40;;;;;;5029696;28;20101;-73
2022/10/06 09:43:26;;;;;;;11.65;1.85;;;19.30;66.20;;;;;;4992907;28;20098;-74
2022/10/06 09:45:53;;;;;;;12.40;1.98;;;19.40;64.90;;;;;;5011795;28;20025;-73
2022/10/06 09:48:25;;;;;;;18.95;2.13;;;19.30;62.40;;;;;;5012287;28;20021;-73
2022/10/06 09:51:07;;;;;;;12.48;2.40;;;19.40;63.20;;;;;;5032648;28;20089;-71
2022/10/06 09:53:34;;;;;;;13.48;2.63;;;19.30;62.80;;;;;;5032460;28;20178;-72
2022/10/06 09:56:03;;;;;;;11.02;2.08;;;19.40;62.70;;;;;;5029287;28;20113;-73
2022/10/06 09:58:36;;;;;;;11.32;1.70;;;19.50;63.40;;;;;;5011635;28;20024;-73
2022/10/06 10:01:09;;;;;;;12.50;2.70;;;19.50;61.50;;;;;;5011211;28;20155;-74
2022/10/06 10:03:44;;;;;;;12.48;2.15;;;19.60;61.30;;;;;;5028946;28;20125;-72
2022/10/06 10:06:27;;;;;;;12.18;1.83;;;19.80;60.40;;;;;;5029066;28;20058;-72
2022/10/06 10:09:20;;;;;;;8.23;1.65;;;19.90;63.40;;;;;;5029426;28;20022;-72
2022/10/06 10:12:23;;;;;;;9.02;2.03;;;20.00;59.90;;;;;;5011347;28;20033;-73
2022/10/06 10:14:49;;;;;;;7.40;1.98;;;19.70;60.20;;;;;;5005012;28;20128;-73
2022/10/06 10:17:22;;;;;;;12.95;3.28;;;19.50;60.30;;;;;;5028906;28;20022;-73
2022/10/06 10:19:54;;;;;;;13.13;2.10;;;19.30;61.20;;;;;;5011526;28;20033;-73
2022/10/06 10:22:24;;;;;;;11.35;3.35;;;19.30;61.10;;;;;;5011451;28;20033;-73
2022/10/06 10:25:12;;;;;;;14.38;2.28;;;19.30;61.20;;;;;;5029780;28;20041;-74
2022/10/06 10:28:03;;;;;;;12.55;2.35;;;19.60;64.80;;;;;;5029733;28;20026;-73
2022/10/06 10:30:32;;;;;;;11.10;2.85;;;19.80;64.00;;;;;;5011944;28;20142;-74
2022/10/06 10:33:08;;;;;;;10.87;2.47;;;19.90;59.60;;;;;;5029113;28;20464;-73
2022/10/06 10:35:49;;;;;;;11.70;2.30;;;20.00;61.50;;;;;;5007384;28;20467;-75
2022/10/06 10:38:18;;;;;;;16.33;2.90;;;19.80;60.90;;;;;;5027456;28;20057;-73
2022/10/06 10:40:50;;;;;;;11.10;2.13;;;19.80;60.50;;;;;;5029494;28;20550;-75
2022/10/06 10:43:24;;;;;;;12.38;2.92;;;19.80;60.00;;;;;;5012101;28;20018;-73
2022/10/06 10:46:03;;;;;;;12.57;2.28;;;19.80;61.40;;;;;;5028937;28;20122;-74
2022/10/06 10:48:43;;;;;;;11.38;2.45;;;20.00;61.80;;;;;;5026615;28;20079;-74
2022/10/06 10:51:14;;;;;;;10.75;2.20;;;20.30;59.20;;;;;;5029436;28;20132;-73
2022/10/06 10:53:57;;;;;;;10.98;3.08;;;20.30;57.90;;;;;;5005937;28;20756;-74
2022/10/06 10:56:25;;;;;;;14.15;2.25;;;20.00;58.00;;;;;;5010700;28;20091;-73
2022/10/06 10:59:03;;;;;;;12.63;2.53;;;19.80;57.60;;;;;;5027041;28;20064;-72
2022/10/06 11:01:42;;;;;;;10.05;2.00;;;19.50;59.20;;;;;;5022204;28;20032;-73
2022/10/06 11:04:12;;;;;;;8.52;2.05;;;19.30;61.80;;;;;;5010080;28;20033;-73
2022/10/06 11:06:59;;;;;;;6.15;1.52;;;19.60;60.40;;;;;;5009317;28;20109;-72
2022/10/06 11:09:47;;;;;;;8.38;1.80;;;19.90;64.30;;;;;;5009938;28;20518;-72
2022/10/06 11:12:54;;;;;;;10.13;1.60;;;20.30;63.00;;;;;;5034072;28;20111;-72
2022/10/06 11:15:56;;;;;;;7.22;2.20;;;20.50;55.30;;;;;;4988977;28;20069;-73
2022/10/06 11:18:36;;;;;;;11.18;2.22;;;20.80;60.10;;;;;;5010120;28;20518;-74
2022/10/06 11:21:44;;;;;;;13.00;3.17;;;20.80;58.40;;;;;;5012850;28;20080;-77
2022/10/06 11:24:28;;;;;;;9.20;1.77;;;20.90;58.70;;;;;;5026896;28;20128;-76
2022/10/06 11:27:16;;;;;;;10.90;1.75;;;20.90;60.90;;;;;;5031275;28;20108;-81
2022/10/06 11:30:02;;;;;;;6.43;1.38;;;20.70;56.00;;;;;;5011778;28;20088;-79
2022/10/06 11:33:05;;;;;;;10.48;1.35;;;20.30;57.60;;;;;;5020812;28;20083;-81
2022/10/06 11:35:37;;;;;;;6.50;1.40;;;20.10;63.00;;;;;;5015476;28;20041;-81
2022/10/06 11:38:29;;;;;;;7.80;1.42;;;20.30;65.70;;;;;;5032844;28;20018;-79
2022/10/06 11:41:10;;;;;;;7.85;1.58;;;20.60;60.60;;;;;;5015579;28;20022;-81
2022/10/06 11:44:12;;;;;;;10.68;1.73;;;20.70;57.50;;;;;;5032950;28;20041;-80
2022/10/06 11:47:04;;;;;;;7.20;1.63;;;20.80;55.70;;;;;;5015355;28;20018;-81
2022/10/06 11:49:31;;;;;;;8.05;1.90;;;20.80;56.00;;;;;;5016252;28;20033;-84
2022/10/06 11:52:24;;;;;;;8.00;1.98;;;20.90;58.60;;;;;;5014862;28;20069;-81
2022/10/06 11:55:16;;;;;;;10.48;1.70;;;21.10;60.20;;;;;;4997267;28;20107;-80
2022/10/06 11:58:06;;;;;;;5.57;1.15;;;21.30;57.30;;;;;;4998706;28;20029;-83
2022/10/06 12:00:41;;;;;;;7.25;2.03;;;21.30;59.60;;;;;;5013559;28;20028;-77
2022/10/06 12:03:29;;;;;;;7.55;2.08;;;21.20;54.80;;;;;;5032481;28;20029;-79
2022/10/06 12:05:56;;;;;;;10.18;2.17;;;21.00;58.70;;;;;;5014328;28;20408;-83
2022/10/06 12:08:39;;;;;;;7.47;1.92;;;20.90;56.70;;;;;;5030146;28;20037;-82
2022/10/06 12:11:40;;;;;;;8.80;1.60;;;21.00;58.00;;;;;;5014252;28;20022;-80
2022/10/06 12:14:30;;;;;;;6.28;1.38;;;21.20;58.30;;;;;;5031595;28;20064;-78
2022/10/06 12:17:15;;;;;;;7.53;1.95;;;21.40;54.70;;;;;;5013621;28;20035;-82
2022/10/06 12:20:19;;;;;;;4.68;0.85;;;21.60;56.40;;;;;;5031519;28;20029;-79
2022/10/06 12:22:54;;;;;;;7.22;2.03;;;21.60;60.00;;;;;;4971014;28;20057;-82
2022/10/06 12:25:44;;;;;;;5.93;1.42;;;21.60;54.20;;;;;;5002474;28;20173;-79
2022/10/06 12:28:19;;;;;;;;;;;21.60;54.50;;;;;;5015266;28;20022;-83
2022/10/06 12:31:00;;;;;;;10.75;1.35;;;21.50;55.30;;;;;;5031828;28;19909;-85
2022/10/06 12:33:37;;;;;;;6.55;1.67;;;21.50;55.10;;;;;;5015854;28;20042;-84
2022/10/06 12:36:18;;;;;;;8.95;2.25;;;21.50;56.40;;;;;;5012377;28;20017;-85
2022/10/06 12:39:22;;;;;;;8.02;1.45;;;21.60;52.80;;;;;;5014146;28;20042;-82
2022/10/06 12:42:18;;;;;;;8.50;1.40;;;21.40;58.20;;;;;;5012672;28;20037;-77
2022/10/06 12:44:48;;;;;;;5.68;1.48;;;21.20;55.30;;;;;;5026590;28;20029;-76
2022/10/06 12:47:39;;;;;;;8.50;1.65;;;21.10;56.10;;;;;;5026751;28;20023;-78
2022/10/06 12:50:25;;;;;;;7.40;1.65;;;20.80;59.60;;;;;;5030522;28;20029;-78
2022/10/06 12:52:57;;;;;;;10.15;2.15;;;20.80;65.30;;;;;;5028631;28;20021;-75
2022/10/06 12:55:48;;;;;;;8.25;2.45;;;20.60;62.00;;;;;;5027452;28;20025;-75
2022/10/06 12:58:20;;;;;;;;;;;20.50;68.80;;;;;;5020016;28;20447;-79
2022/10/06 13:00:46;;;;;;;7.97;1.45;;;20.50;58.70;;;;;;5010011;28;19920;-76
2022/10/06 13:03:25;;;;;;;13.38;2.30;;;20.50;60.60;;;;;;5028081;28;20040;-77
2022/10/06 13:05:55;;;;;;;9.55;1.40;;;20.50;56.30;;;;;;5012707;28;20025;-76
2022/10/06 13:08:22;;;;;;;5.85;1.58;;;20.70;62.10;;;;;;5010866;28;20018;-75
2022/10/06 13:10:47;;;;;;;6.68;1.88;;;20.90;60.70;;;;;;5031897;28;20026;-78
2022/10/06 13:13:23;;;;;;;5.85;0.93;;;20.90;54.60;;;;;;5027161;28;20570;-75